.
WxDataArchive / Data Records for 2015-01-12
2015-01-11 January 2015 2015-01-13

Data Records for Monday, 12 January 2015

Time	Temp	Chill	HIndex	Humid	Dewpt	 Wind 	HiWind	WindDir	Rain 	Barom
-----	----	-----	------	-----	-----	------	------	-------	-----	-----
00:00	28.5	28.5	28.5	93	26.7	0	1	270	0.00	30.259 
00:05	28.7	28.7	28.7	93	26.9	0	0	---	0.00	30.259 
00:10	28.7	28.7	28.7	93	26.9	0	0	---	0.00	30.259 
00:15	28.7	28.7	28.7	93	26.9	0	1	270	0.00	30.251 
00:20	28.8	28.8	28.8	93	27.0	0	1	270	0.00	30.251 
00:25	28.8	28.8	28.8	93	27.0	0	0	---	0.00	30.251 
00:30	28.8	28.8	28.8	93	27.0	0	0	---	0.00	30.248 
00:35	28.8	28.8	28.8	93	27.0	0	1	270	0.00	30.248 
00:40	28.8	28.8	28.8	93	27.0	0	1	270	0.00	30.248 
00:45	28.8	28.8	28.8	93	27.0	0	0	---	0.00	30.245 
00:50	28.8	28.8	28.8	93	27.0	0	0	---	0.00	30.245 
00:55	29.0	29.0	29.0	93	27.2	0	0	---	0.00	30.245 
01:00	29.0	29.0	29.0	93	27.2	0	0	---	0.00	30.243 
01:05	29.0	29.0	29.0	93	27.2	0	0	---	0.00	30.243 
01:10	29.0	29.0	29.0	93	27.2	0	0	---	0.00	30.243 
01:15	29.0	29.0	29.0	93	27.2	0	0	---	0.00	30.236 
01:20	29.0	29.0	29.0	93	27.2	0	0	---	0.00	30.236 
01:25	29.0	29.0	29.0	93	27.2	0	0	---	0.00	30.236 
01:30	29.0	29.0	29.0	93	27.2	0	0	---	0.00	30.239 
01:35	29.0	29.0	29.0	93	27.2	0	0	---	0.00	30.239 
01:40	29.0	29.0	29.0	93	27.2	0	0	---	0.00	30.239 
01:45	29.1	29.1	29.1	93	27.3	0	0	---	0.00	30.240 
01:50	29.1	29.1	29.1	93	27.3	0	0	---	0.00	30.240 
01:55	29.1	29.1	29.1	93	27.3	0	0	---	0.00	30.240 
02:00	29.1	29.1	29.1	93	27.3	0	0	---	0.00	30.241 
02:05	29.3	29.3	29.3	93	27.5	0	0	---	0.00	30.241 
02:10	29.3	29.3	29.3	93	27.5	0	0	---	0.00	30.241 
02:15	29.4	29.4	29.4	93	27.6	0	0	---	0.00	30.239 
02:20	29.4	29.4	29.4	93	27.6	0	0	---	0.00	30.239 
02:25	29.4	29.4	29.4	93	27.6	0	0	---	0.00	30.239 
02:30	29.5	29.5	29.5	93	27.7	0	0	---	0.00	30.238 
02:35	29.5	29.5	29.5	93	27.7	0	0	---	0.00	30.238 
02:40	29.5	29.5	29.5	93	27.7	0	0	---	0.00	30.238 
02:45	29.4	29.4	29.4	93	27.6	0	0	---	0.00	30.245 
02:50	29.4	29.4	29.4	93	27.6	0	0	---	0.00	30.245 
02:55	29.4	29.4	29.4	93	27.6	0	0	---	0.00	30.245 
03:00	29.4	29.4	29.4	93	27.6	0	0	---	0.00	30.248 
03:05	29.4	29.4	29.4	93	27.6	0	0	---	0.00	30.248 
03:10	29.4	29.4	29.4	93	27.6	0	0	---	0.00	30.248 
03:15	29.4	29.4	29.4	93	27.6	0	0	---	0.00	30.245 
03:20	29.4	29.4	29.4	93	27.6	0	0	---	0.00	30.245 
03:25	29.4	29.4	29.4	94	27.9	0	0	---	0.00	30.245 
03:30	29.4	29.4	29.4	94	27.9	0	0	---	0.00	30.244 
03:35	29.4	29.4	29.4	94	27.9	0	0	---	0.00	30.244 
03:40	29.4	29.4	29.4	94	27.9	0	0	---	0.00	30.244 
03:45	29.4	29.4	29.4	94	27.9	0	0	---	0.00	30.234 
03:50	29.4	29.4	29.4	94	27.9	0	0	---	0.00	30.234 
03:55	29.4	29.4	29.4	94	27.9	0	0	---	0.00	30.234 
04:00	29.4	29.4	29.4	94	27.9	0	0	---	0.00	30.234 
04:05	29.4	29.4	29.4	94	27.9	0	0	---	0.00	30.234 
04:10	29.4	29.4	29.4	94	27.9	0	0	---	0.00	30.234 
04:15	29.4	29.4	29.4	94	27.9	0	0	---	0.00	30.237 
04:20	29.4	29.4	29.4	94	27.9	0	0	---	0.00	30.237 
04:25	29.4	29.4	29.4	94	27.9	0	0	---	0.00	30.237 
04:30	29.4	29.4	29.4	94	27.9	0	0	---	0.00	30.236 
04:35	29.4	29.4	29.4	94	27.9	0	0	---	0.00	30.236 
04:40	29.4	29.4	29.4	94	27.9	0	0	---	0.00	30.236 
04:45	29.4	29.4	29.4	94	27.9	0	0	---	0.00	30.239 
04:50	29.4	29.4	29.4	94	27.9	0	0	---	0.00	30.239 
04:55	29.4	29.4	29.4	94	27.9	0	0	---	0.00	30.239 
05:00	29.4	29.4	29.4	94	27.9	0	0	---	0.00	30.239 
05:05	29.4	29.4	29.4	94	27.9	0	0	---	0.00	30.239 
05:10	29.4	29.4	29.4	94	27.9	0	0	---	0.00	30.239 
05:15	29.4	29.4	29.4	94	27.9	0	0	---	0.00	30.241 
05:20	29.3	29.3	29.3	94	27.8	0	0	---	0.00	30.241 
05:25	29.3	29.3	29.3	94	27.8	0	1	270	0.00	30.241 
05:30	29.3	29.3	29.3	94	27.8	0	0	---	0.00	30.239 
05:35	29.1	29.1	29.1	94	27.6	0	1	270	0.00	30.239 
05:40	29.0	29.0	29.0	94	27.5	0	1	270	0.00	30.239 
05:45	29.0	29.0	29.0	94	27.5	0	1	270	0.00	30.242 
05:50	29.0	29.0	29.0	94	27.5	0	1	270	0.00	30.242 
05:55	28.8	28.8	28.8	94	27.3	0	0	---	0.00	30.242 
06:00	28.8	28.8	28.8	94	27.3	0	0	---	0.00	30.240 
06:05	28.8	28.8	28.8	94	27.3	0	0	---	0.00	30.240 
06:10	28.8	28.8	28.8	94	27.3	0	1	270	0.00	30.240 
06:15	28.8	28.8	28.8	94	27.3	0	2	270	0.00	30.244 
06:20	28.8	28.8	28.8	94	27.3	0	1	270	0.00	30.244 
06:25	28.8	28.8	28.8	94	27.3	0	1	270	0.00	30.244 
06:30	28.8	28.8	28.8	94	27.3	0	0	---	0.00	30.254 
06:35	28.8	28.8	28.8	94	27.3	0	1	270	0.00	30.254 
06:40	28.8	28.8	28.8	94	27.3	0	0	---	0.00	30.254 
06:45	28.8	28.8	28.8	94	27.3	0	1	270	0.00	30.267 
06:50	28.8	28.8	28.8	94	27.3	0	0	---	0.00	30.267 
06:55	28.8	28.8	28.8	94	27.3	0	1	270	0.00	30.267 
07:00	28.8	28.8	28.8	94	27.3	0	1	270	0.00	30.273 
07:05	28.8	28.8	28.8	94	27.3	0	2	270	0.00	30.273 
07:10	28.8	28.8	28.8	93	27.0	0	1	270	0.00	30.273 
07:15	28.7	28.7	28.7	93	26.9	0	2	270	0.00	30.271 
07:20	28.7	28.7	28.7	93	26.9	0	1	270	0.00	30.271 
07:25	28.7	28.7	28.7	93	26.9	0	1	270	0.00	30.271 
07:30	28.7	28.7	28.7	93	26.9	0	1	270	0.00	30.268 
07:35	28.5	28.5	28.5	93	26.7	0	2	270	0.00	30.268 
07:40	28.5	28.5	28.5	93	26.7	0	1	270	0.00	30.268 
07:45	28.5	28.5	28.5	93	26.7	0	1	270	0.00	30.255 
07:50	28.5	28.5	28.5	93	26.7	0	1	270	0.00	30.255 
07:55	28.5	28.5	28.5	93	26.7	0	2	270	0.00	30.255 
08:00	28.5	28.5	28.5	93	26.7	0	1	270	0.00	30.268 
08:05	28.5	28.5	28.5	93	26.7	0	2	270	0.00	30.268 
08:10	28.5	28.5	28.5	93	26.7	0	1	270	0.00	30.268 
08:15	28.5	28.5	28.5	93	26.7	0	2	270	0.00	30.265 
08:20	28.5	28.5	28.5	93	26.7	0	1	270	0.00	30.265 
08:25	28.4	28.4	28.4	93	26.6	0	1	270	0.00	30.265 
08:30	28.4	28.4	28.4	93	26.6	0	1	270	0.00	30.267 
08:35	28.5	28.5	28.5	93	26.7	0	1	270	0.00	30.267 
08:40	28.5	28.5	28.5	93	26.7	0	2	270	0.00	30.267 
08:45	28.5	28.5	28.5	93	26.7	0	1	270	0.00	30.268 
08:50	28.5	28.5	28.5	93	26.7	0	1	270	0.00	30.268 
08:55	28.5	28.5	28.5	93	26.7	0	0	---	0.00	30.268 
09:00	28.5	28.5	28.5	93	26.7	0	0	---	0.00	30.282 
09:05	28.7	28.7	28.7	93	26.9	0	0	---	0.00	30.282 
09:10	28.7	28.7	28.7	93	26.9	0	1	270	0.00	30.282 
09:15	28.7	28.7	28.7	93	26.9	0	1	270	0.00	30.290 
09:20	28.7	28.7	28.7	93	26.9	0	1	270	0.00	30.290 
09:25	28.7	28.7	28.7	93	26.9	0	1	270	0.00	30.290 
09:30	28.8	28.8	28.8	93	27.0	0	1	270	0.00	30.301 
09:35	28.8	28.8	28.8	93	27.0	0	2	270	0.00	30.301 
09:40	28.8	28.8	28.8	93	27.0	0	1	270	0.00	30.301 
09:45	28.8	28.8	28.8	93	27.0	0	1	270	0.00	30.303 
09:50	28.8	28.8	28.8	93	27.0	0	0	---	0.00	30.303 
09:55	28.8	28.8	28.8	93	27.0	0	1	270	0.00	30.303 
10:00	28.8	28.8	28.8	93	27.0	0	1	270	0.00	30.312 
10:05	28.8	28.8	28.8	93	27.0	0	1	270	0.00	30.312 
10:10	29.0	29.0	29.0	93	27.2	0	1	270	0.00	30.312 
10:15	29.0	29.0	29.0	93	27.2	0	1	270	0.00	30.317 
10:20	29.1	29.1	29.1	93	27.3	0	2	270	0.00	30.317 
10:25	29.1	29.1	29.1	93	27.3	0	2	270	0.00	30.317 
10:30	29.1	29.1	29.1	93	27.3	0	2	270	0.00	30.325 
10:35	29.4	29.4	29.4	93	27.6	0	1	270	0.00	30.325 
10:40	29.5	29.5	29.5	92	27.5	0	1	270	0.00	30.325 
10:45	29.7	29.7	29.7	92	27.7	0	1	270	0.00	30.330 
10:50	29.7	29.7	29.7	92	27.7	0	2	270	0.00	30.330 
10:55	29.7	29.7	29.7	92	27.7	0	2	270	0.00	30.330 
11:00	29.7	29.7	29.7	92	27.7	0	1	270	0.00	30.333 
11:05	29.7	29.7	29.7	91	27.4	0	3	270	0.00	30.333 
11:10	29.8	29.8	29.8	91	27.5	0	1	270	0.00	30.333 
11:15	29.7	29.7	29.7	90	27.1	0	3	270	0.00	30.335 
11:20	30.0	30.0	30.0	90	27.4	0	1	270	0.00	30.335 
11:25	30.3	30.3	30.3	90	27.7	0	1	270	0.00	30.335 
11:30	30.3	30.3	30.3	88	27.2	0	1	270	0.00	30.344 
11:35	30.1	30.1	30.1	88	27.0	0	1	270	0.00	30.344 
11:40	30.1	30.1	30.1	87	26.7	0	2	270	0.00	30.344 
11:45	29.8	29.8	29.8	86	26.1	0	2	270	0.00	30.335 
11:50	29.8	29.8	29.8	86	26.1	0	2	270	0.01	30.335 
11:55	29.8	29.8	29.8	85	25.9	0	2	270	0.00	30.335 
12:00	30.1	30.1	30.1	85	26.1	0	3	270	0.00	30.336 
12:05	30.3	30.3	30.3	84	26.1	0	3	270	0.00	30.336 
12:10	30.1	30.1	30.1	83	25.6	1	3	292	0.00	30.336 
12:15	30.1	30.1	30.1	83	25.6	1	3	292	0.00	30.337 
12:20	30.1	30.1	30.1	82	25.3	1	3	315	0.00	30.337 
12:25	30.1	30.1	30.1	81	25.0	1	4	338	0.00	30.337 
12:30	30.3	30.3	30.3	81	25.2	1	3	292	0.00	30.331 
12:35	30.4	30.4	30.4	79	24.7	1	5	338	0.00	30.331 
12:40	30.4	30.4	30.4	78	24.4	1	4	315	0.00	30.331 
12:45	30.4	30.4	30.4	77	24.1	1	4	315	0.00	30.331 
12:50	30.3	30.3	30.3	77	24.0	1	4	0	0.00	30.331 
12:55	30.0	30.0	30.0	77	23.7	2	5	315	0.00	30.331 
13:00	30.0	30.0	30.0	78	24.0	1	4	315	0.00	30.332 
13:05	29.8	29.8	29.8	78	23.8	1	5	315	0.00	30.332 
13:10	29.5	29.5	29.5	78	23.5	1	4	338	0.00	30.332 
13:15	29.5	29.5	29.5	78	23.5	1	4	315	0.00	30.336 
13:20	29.4	29.4	29.4	78	23.4	1	4	338	0.01	30.336 
13:25	29.4	29.4	29.4	77	23.1	1	5	338	0.00	30.336 
13:30	29.3	29.3	29.3	77	23.0	2	4	0	0.00	30.342 
13:35	29.0	29.0	29.0	75	22.1	2	5	338	0.00	30.342 
13:40	29.0	29.0	29.0	75	22.1	1	5	338	0.01	30.342 
13:45	28.8	28.8	28.8	74	21.6	1	4	315	0.00	30.347 
13:50	28.8	28.8	28.8	72	20.9	1	4	315	0.00	30.347 
13:55	28.7	28.7	28.7	74	21.5	2	7	338	0.00	30.347 
14:00	28.7	28.7	28.7	74	21.5	1	3	338	0.00	30.349 
14:05	28.4	28.4	28.4	73	20.9	2	6	338	0.00	30.349 
14:10	28.4	28.4	28.4	73	20.9	1	4	315	0.00	30.349 
14:15	28.2	28.2	28.2	72	20.4	1	4	338	0.00	30.354 
14:20	28.1	28.1	28.1	72	20.3	1	5	270	0.00	30.354 
14:25	27.8	27.8	27.8	72	20.0	2	5	338	0.00	30.354 
14:30	27.8	27.8	27.8	73	20.3	1	4	315	0.00	30.360 
14:35	27.6	27.6	27.6	73	20.1	2	6	292	0.00	30.360 
14:40	27.5	27.5	27.5	73	20.0	2	5	292	0.00	30.360 
14:45	27.3	27.3	27.3	73	19.8	2	4	292	0.00	30.362 
14:50	27.2	27.2	27.2	73	19.7	2	6	338	0.00	30.362 
14:55	27.0	27.0	27.0	73	19.5	2	6	0	0.00	30.362 
15:00	27.0	27.0	27.0	73	19.5	1	4	315	0.00	30.373 
15:05	26.9	26.9	26.9	73	19.4	1	5	315	0.00	30.373 
15:10	26.9	26.9	26.9	73	19.4	1	5	292	0.00	30.373 
15:15	26.7	26.7	26.7	73	19.2	1	5	338	0.00	30.378 
15:20	26.7	26.7	26.7	74	19.5	1	3	338	0.00	30.378 
15:25	26.7	26.7	26.7	74	19.5	0	2	338	0.00	30.378 
15:30	26.6	26.6	26.6	73	19.1	2	4	315	0.00	30.391 
15:35	26.6	26.6	26.6	74	19.5	2	3	338	0.00	30.391 
15:40	26.4	26.4	26.4	74	19.3	1	5	338	0.00	30.391 
15:45	26.1	26.1	26.1	73	18.7	2	5	338	0.00	30.399 
15:50	26.0	26.0	26.0	73	18.6	2	6	0	0.00	30.399 
15:55	25.8	25.8	25.8	74	18.7	2	6	270	0.00	30.399 
16:00	25.7	25.7	25.7	73	18.3	2	7	338	0.00	30.409 
16:05	25.7	25.7	25.7	73	18.3	1	5	315	0.00	30.409 
16:10	25.6	25.6	25.6	73	18.2	1	4	315	0.00	30.409 
16:15	25.4	25.4	25.4	72	17.7	1	7	315	0.00	30.416 
16:20	25.4	25.4	25.4	73	18.0	1	4	338	0.00	30.416 
16:25	25.4	25.4	25.4	72	17.7	0	4	338	0.00	30.416 
16:30	25.3	25.3	25.3	71	17.2	2	6	338	0.00	30.428 
16:35	25.3	25.3	25.3	71	17.2	1	3	22	0.00	30.428 
16:40	25.3	25.3	25.3	71	17.2	1	4	338	0.00	30.428 
16:45	25.3	25.3	25.3	71	17.2	1	4	292	0.00	30.438 
16:50	25.1	25.1	25.1	71	17.0	0	3	292	0.00	30.438 
16:55	25.0	25.0	25.0	70	16.6	1	4	45	0.00	30.438 
17:00	24.8	24.8	24.8	69	16.1	1	3	0	0.00	30.445 
17:05	24.5	24.5	24.5	68	15.5	1	4	22	0.00	30.445 
17:10	24.2	24.2	24.2	66	14.5	0	4	22	0.00	30.445 
17:15	23.9	23.9	23.9	66	14.2	1	5	270	0.00	30.460 
17:20	23.6	23.6	23.6	65	13.6	1	3	0	0.00	30.460 
17:25	23.6	23.6	23.6	66	13.9	1	4	338	0.00	30.460 
17:30	23.6	23.6	23.6	66	13.9	0	4	22	0.00	30.471 
17:35	23.3	23.3	23.3	66	13.6	0	3	0	0.00	30.471 
17:40	23.0	23.0	23.0	65	13.0	0	4	338	0.00	30.471 
17:45	22.5	22.5	22.5	65	12.5	1	3	338	0.00	30.480 
17:50	22.2	22.2	22.2	65	12.3	0	3	338	0.00	30.480 
17:55	21.9	21.9	21.9	65	12.0	0	2	338	0.00	30.480 
18:00	21.6	21.6	21.6	65	11.7	0	3	0	0.00	30.494 
18:05	21.3	21.3	21.3	66	11.7	0	2	0	0.00	30.494 
18:10	21.1	21.1	21.1	66	11.5	0	1	0	0.00	30.494 
18:15	21.0	21.0	21.0	66	11.5	0	2	0	0.00	30.507 
18:20	20.8	20.8	20.8	66	11.3	0	1	0	0.00	30.507 
18:25	20.5	20.5	20.5	67	11.3	0	1	0	0.00	30.507 
18:30	20.5	20.5	20.5	68	11.6	0	1	0	0.00	30.514 
18:35	20.5	20.5	20.5	68	11.6	0	1	0	0.00	30.514 
18:40	20.3	20.3	20.3	68	11.5	0	1	0	0.00	30.514 
18:45	20.3	20.3	20.3	68	11.5	0	1	0	0.00	30.522 
18:50	20.2	20.2	20.2	68	11.4	0	1	0	0.00	30.522 
18:55	20.0	20.0	20.0	68	11.2	0	1	0	0.00	30.522 
19:00	19.9	19.9	19.9	68	11.1	0	0	---	0.00	30.529 
19:05	19.9	19.9	19.9	68	11.1	0	1	0	0.00	30.529 
19:10	19.7	19.7	19.7	69	11.2	0	1	0	0.00	30.529 
19:15	19.7	19.7	19.7	69	11.2	0	1	0	0.00	30.540 
19:20	19.7	19.7	19.7	69	11.2	0	0	---	0.00	30.540 
19:25	19.5	19.5	19.5	69	11.0	0	1	0	0.00	30.540 
19:30	19.5	19.5	19.5	69	11.0	0	1	0	0.00	30.544 
19:35	19.9	19.9	19.9	69	11.4	0	4	315	0.00	30.544 
19:40	20.2	20.2	20.2	68	11.4	0	3	315	0.00	30.544 
19:45	20.6	20.6	20.6	67	11.4	1	4	338	0.00	30.554 
19:50	21.0	21.0	21.0	66	11.5	0	3	0	0.00	30.554 
19:55	21.1	21.1	21.1	66	11.5	0	3	338	0.00	30.554 
20:00	21.1	21.1	21.1	66	11.5	0	1	338	0.00	30.563 
20:05	21.1	21.1	21.1	66	11.5	0	2	338	0.00	30.563 
20:10	21.1	21.1	21.1	67	11.9	0	1	338	0.00	30.563 
20:15	21.1	21.1	21.1	67	11.9	0	1	338	0.00	30.569 
20:20	21.1	21.1	21.1	68	12.2	0	2	338	0.00	30.569 
20:25	21.0	21.0	21.0	68	12.1	0	3	45	0.00	30.569 
20:30	20.8	20.8	20.8	67	11.6	0	2	45	0.00	30.574 
20:35	20.5	20.5	20.5	66	11.0	0	2	68	0.00	30.574 
20:40	20.2	20.2	20.2	66	10.7	0	1	68	0.00	30.574 
20:45	19.9	19.9	19.9	65	10.1	1	4	68	0.00	30.580 
20:50	19.7	19.7	19.7	65	9.9	0	2	68	0.00	30.580 
20:55	19.4	19.4	19.4	65	9.6	0	1	68	0.00	30.580 
21:00	18.9	18.9	18.9	65	9.1	0	0	---	0.00	30.585 
21:05	18.4	18.4	18.4	66	9.0	0	0	---	0.00	30.585 
21:10	17.8	17.8	17.8	66	8.4	0	0	---	0.00	30.585 
21:15	17.3	17.3	17.3	67	8.3	0	0	---	0.00	30.593 
21:20	16.9	16.9	16.9	68	8.2	0	0	---	0.00	30.593 
21:25	16.4	16.4	16.4	68	7.7	0	0	---	0.00	30.593 
21:30	15.9	15.9	15.9	69	7.6	0	0	---	0.00	30.602 
21:35	15.4	15.4	15.4	69	7.1	0	0	---	0.00	30.602 
21:40	15.1	15.1	15.1	70	7.1	0	0	---	0.00	30.602 
21:45	14.8	14.8	14.8	71	7.1	0	0	---	0.00	30.604 
21:50	14.6	14.6	14.6	72	7.2	0	1	68	0.00	30.604 
21:55	14.6	14.6	14.6	73	7.5	0	0	---	0.00	30.604 
22:00	14.4	14.4	14.4	73	7.4	0	0	---	0.00	30.610 
22:05	14.3	14.3	14.3	73	7.3	0	0	---	0.00	30.610 
22:10	14.1	14.1	14.1	73	7.1	0	1	68	0.00	30.610 
22:15	14.1	14.1	14.1	73	7.1	0	0	---	0.00	30.611 
22:20	14.1	14.1	14.1	73	7.1	0	0	---	0.00	30.611 
22:25	14.3	14.3	14.3	73	7.3	0	1	68	0.00	30.611 
22:30	14.3	14.3	14.3	73	7.3	0	0	---	0.00	30.613 
22:35	14.4	14.4	14.4	73	7.4	0	1	68	0.00	30.613 
22:40	14.4	14.4	14.4	73	7.4	0	1	68	0.00	30.613 
22:45	14.4	14.4	14.4	72	7.1	0	1	68	0.00	30.617 
22:50	14.4	14.4	14.4	72	7.1	0	2	68	0.00	30.617 
22:55	14.3	14.3	14.3	71	6.6	0	0	---	0.00	30.617 
23:00	14.1	14.1	14.1	71	6.5	0	0	---	0.00	30.619 
23:05	14.0	14.0	14.0	71	6.4	0	0	---	0.00	30.619 
23:10	13.8	13.8	13.8	71	6.2	0	1	68	0.00	30.619 
23:15	13.6	13.6	13.6	71	6.0	0	0	---	0.00	30.616 
23:20	13.6	13.6	13.6	71	6.0	0	1	68	0.00	30.616 
23:25	13.8	13.8	13.8	71	6.2	0	1	68	0.00	30.616 
23:30	13.8	13.8	13.8	71	6.2	0	1	68	0.00	30.614 
23:35	13.6	13.6	13.6	71	6.0	0	0	---	0.00	30.614 
23:40	13.6	13.6	13.6	71	6.0	0	1	68	0.00	30.614 
23:45	13.6	13.6	13.6	71	6.0	0	2	68	0.00	30.620 
23:50	13.6	13.6	13.6	71	6.0	0	2	68	0.00	30.620 
23:55	13.6	13.6	13.6	71	6.0	0	2	68	0.00	30.620 

CoCoRaHS
IN-AL-39
A2 Web Hosting
Creative Commons License
GoDaddy
search engine by freefind advanced

loaded 2018-11-18 11:16:45 • last modified 2010-11-18 10:43:29
Privacy PolicyDisclaimer
• wx.awcolley.com is powered by PmWiki v.2002016 •
• all content (unless otherwise noted) © 2018 A W Colley